sensor_id;sensor_type;location;lat;lon;timestamp;pressure;altitude;pressure_sealevel;temperature;humidity
6532;BME280;3299;42.004;24.868;2023-05-12T00:00:21;98605.56;;;10.73;100.00
6532;BME280;3299;42.004;24.868;2023-05-12T00:02:47;98611.34;;;10.76;100.00
6532;BME280;3299;42.004;24.868;2023-05-12T00:05:12;98573.63;;;10.60;100.00
6532;BME280;3299;42.004;24.868;2023-05-12T00:07:37;98578.41;;;10.66;100.00
6532;BME280;3299;42.004;24.868;2023-05-12T00:10:03;98634.25;;;10.95;100.00
6532;BME280;3299;42.004;24.868;2023-05-12T00:12:29;98642.22;;;11.04;100.00
6532;BME280;3299;42.004;24.868;2023-05-12T00:14:54;98573.84;;;10.69;100.00
6532;BME280;3299;42.004;24.868;2023-05-12T00:17:20;98664.44;;;11.21;100.00
6532;BME280;3299;42.004;24.868;2023-05-12T00:19:46;98642.25;;;11.17;100.00
6532;BME280;3299;42.004;24.868;2023-05-12T00:22:12;98566.50;;;10.63;100.00
6532;BME280;3299;42.004;24.868;2023-05-12T00:24:39;98605.78;;;10.82;100.00
6532;BME280;3299;42.004;24.868;2023-05-12T00:27:05;98672.19;;;11.21;100.00
6532;BME280;3299;42.004;24.868;2023-05-12T00:29:51;98566.81;;;10.59;100.00
6532;BME280;3299;42.004;24.868;2023-05-12T00:32:16;98619.63;;;10.81;100.00
6532;BME280;3299;42.004;24.868;2023-05-12T00:34:42;98645.94;;;10.88;100.00
6532;BME280;3299;42.004;24.868;2023-05-12T00:37:07;98656.81;;;10.93;100.00
6532;BME280;3299;42.004;24.868;2023-05-12T00:39:33;98576.63;;;10.54;100.00
6532;BME280;3299;42.004;24.868;2023-05-12T00:41:58;98639.50;;;10.81;100.00
6532;BME280;3299;42.004;24.868;2023-05-12T00:44:24;98657.44;;;10.96;100.00
6532;BME280;3299;42.004;24.868;2023-05-12T00:46:49;98627.91;;;10.74;100.00
6532;BME280;3299;42.004;24.868;2023-05-12T00:49:15;98628.09;;;10.71;100.00
6532;BME280;3299;42.004;24.868;2023-05-12T00:51:42;98609.13;;;10.58;100.00
6532;BME280;3299;42.004;24.868;2023-05-12T00:54:08;98664.78;;;10.90;100.00
6532;BME280;3299;42.004;24.868;2023-05-12T00:56:34;98643.63;;;10.58;100.00
6532;BME280;3299;42.004;24.868;2023-05-12T00:59:04;98668.03;;;10.54;100.00
6532;BME280;3299;42.004;24.868;2023-05-12T01:01:31;98648.19;;;10.67;100.00
6532;BME280;3299;42.004;24.868;2023-05-12T01:03:56;98644.47;;;10.84;100.00
6532;BME280;3299;42.004;24.868;2023-05-12T01:06:51;98675.50;;;11.23;100.00
6532;BME280;3299;42.004;24.868;2023-05-12T01:09:18;98628.22;;;10.82;100.00
6532;BME280;3299;42.004;24.868;2023-05-12T01:11:44;98657.91;;;10.64;100.00
6532;BME280;3299;42.004;24.868;2023-05-12T01:14:09;98634.78;;;10.22;100.00
6532;BME280;3299;42.004;24.868;2023-05-12T01:17:11;98659.13;;;10.32;100.00
6532;BME280;3299;42.004;24.868;2023-05-12T01:19:48;98668.66;;;10.58;100.00
6532;BME280;3299;42.004;24.868;2023-05-12T01:22:15;98661.16;;;10.80;100.00
6532;BME280;3299;42.004;24.868;2023-05-12T01:27:17;98575.16;;;10.11;100.00
6532;BME280;3299;42.004;24.868;2023-05-12T01:29:45;98577.75;;;10.11;100.00
6532;BME280;3299;42.004;24.868;2023-05-12T01:32:12;98572.28;;;10.15;100.00
6532;BME280;3299;42.004;24.868;2023-05-12T01:34:37;98614.31;;;10.58;100.00
6532;BME280;3299;42.004;24.868;2023-05-12T01:37:03;98571.53;;;10.52;100.00
6532;BME280;3299;42.004;24.868;2023-05-12T01:39:28;98622.31;;;10.92;100.00
6532;BME280;3299;42.004;24.868;2023-05-12T01:41:54;98647.66;;;11.14;100.00
6532;BME280;3299;42.004;24.868;2023-05-12T01:44:19;98628.47;;;11.04;100.00
6532;BME280;3299;42.004;24.868;2023-05-12T01:46:45;98586.03;;;10.55;100.00
6532;BME280;3299;42.004;24.868;2023-05-12T01:49:11;98589.59;;;10.66;100.00
6532;BME280;3299;42.004;24.868;2023-05-12T01:51:36;98580.41;;;10.75;100.00
6532;BME280;3299;42.004;24.868;2023-05-12T01:54:01;98656.25;;;11.27;100.00
6532;BME280;3299;42.004;24.868;2023-05-12T01:56:27;98664.31;;;11.35;100.00
6532;BME280;3299;42.004;24.868;2023-05-12T01:58:53;98591.25;;;10.92;100.00
6532;BME280;3299;42.004;24.868;2023-05-12T02:01:18;98578.22;;;10.81;100.00
6532;BME280;3299;42.004;24.868;2023-05-12T02:03:44;98578.22;;;10.81;100.00
6532;BME280;3299;42.004;24.868;2023-05-12T02:06:09;98597.88;;;10.84;100.00
6532;BME280;3299;42.004;24.868;2023-05-12T02:08:34;98581.63;;;10.82;100.00
6532;BME280;3299;42.004;24.868;2023-05-12T02:11:07;98671.66;;;11.41;100.00
6532;BME280;3299;42.004;24.868;2023-05-12T02:13:33;98610.13;;;11.07;100.00
6532;BME280;3299;42.004;24.868;2023-05-12T02:15:59;98635.00;;;11.22;100.00
6532;BME280;3299;42.004;24.868;2023-05-12T02:18:24;98569.75;;;10.92;100.00
6532;BME280;3299;42.004;24.868;2023-05-12T02:20:50;98651.59;;;11.32;100.00
6532;BME280;3299;42.004;24.868;2023-05-12T02:23:15;98566.31;;;10.79;100.00
6532;BME280;3299;42.004;24.868;2023-05-12T02:25:41;98599.56;;;11.10;100.00
6532;BME280;3299;42.004;24.868;2023-05-12T02:28:06;98650.75;;;11.31;100.00
6532;BME280;3299;42.004;24.868;2023-05-12T02:30:36;98641.41;;;11.16;100.00
6532;BME280;3299;42.004;24.868;2023-05-12T02:33:02;98664.31;;;11.10;100.00
6532;BME280;3299;42.004;24.868;2023-05-12T02:35:30;98647.09;;;10.96;100.00
6532;BME280;3299;42.004;24.868;2023-05-12T02:37:55;98647.91;;;10.84;100.00
6532;BME280;3299;42.004;24.868;2023-05-12T02:40:21;98543.94;;;10.14;100.00
6532;BME280;3299;42.004;24.868;2023-05-12T02:42:46;98650.72;;;10.94;100.00
6532;BME280;3299;42.004;24.868;2023-05-12T02:45:11;98672.81;;;11.24;100.00
6532;BME280;3299;42.004;24.868;2023-05-12T02:47:37;98650.53;;;11.22;100.00
6532;BME280;3299;42.004;24.868;2023-05-12T02:50:03;98660.06;;;11.34;100.00
6532;BME280;3299;42.004;24.868;2023-05-12T02:52:28;98609.31;;;11.06;100.00
6532;BME280;3299;42.004;24.868;2023-05-12T02:54:53;98661.94;;;11.44;100.00
6532;BME280;3299;42.004;24.868;2023-05-12T02:57:20;98656.16;;;11.28;100.00
6532;BME280;3299;42.004;24.868;2023-05-12T02:59:45;98636.22;;;11.04;100.00
6532;BME280;3299;42.004;24.868;2023-05-12T03:02:11;98657.75;;;10.92;100.00
6532;BME280;3299;42.004;24.868;2023-05-12T03:04:36;98571.25;;;10.18;100.00
6532;BME280;3299;42.004;24.868;2023-05-12T03:07:02;98664.38;;;10.83;100.00
6532;BME280;3299;42.004;24.868;2023-05-12T03:09:27;98613.59;;;10.68;100.00
6532;BME280;3299;42.004;24.868;2023-05-12T03:11:53;98581.78;;;10.54;100.00
6532;BME280;3299;42.004;24.868;2023-05-12T03:14:18;98594.69;;;10.68;100.00
6532;BME280;3299;42.004;24.868;2023-05-12T03:16:43;98590.44;;;10.79;100.00
6532;BME280;3299;42.004;24.868;2023-05-12T03:19:09;98681.41;;;11.37;100.00
6532;BME280;3299;42.004;24.868;2023-05-12T03:21:34;98686.19;;;11.43;100.00
6532;BME280;3299;42.004;24.868;2023-05-12T03:24:00;98645.44;;;11.20;100.00
6532;BME280;3299;42.004;24.868;2023-05-12T03:26:25;98654.75;;;10.98;100.00
6532;BME280;3299;42.004;24.868;2023-05-12T03:28:51;98677.03;;;11.13;100.00
6532;BME280;3299;42.004;24.868;2023-05-12T03:31:16;98683.56;;;11.31;100.00
6532;BME280;3299;42.004;24.868;2023-05-12T03:33:42;98644.94;;;11.03;100.00
6532;BME280;3299;42.004;24.868;2023-05-12T03:36:07;98611.19;;;10.53;100.00
6532;BME280;3299;42.004;24.868;2023-05-12T03:38:33;98648.31;;;10.78;100.00
6532;BME280;3299;42.004;24.868;2023-05-12T03:41:05;98680.59;;;10.73;100.00
6532;BME280;3299;42.004;24.868;2023-05-12T03:43:31;98678.06;;;10.59;100.00
6532;BME280;3299;42.004;24.868;2023-05-12T03:45:57;98610.16;;;10.02;100.00
6532;BME280;3299;42.004;24.868;2023-05-12T03:48:22;98694.66;;;10.69;100.00
6532;BME280;3299;42.004;24.868;2023-05-12T03:50:48;98676.94;;;10.63;100.00
6532;BME280;3299;42.004;24.868;2023-05-12T03:53:14;98663.78;;;10.27;100.00
6532;BME280;3299;42.004;24.868;2023-05-12T03:55:39;98657.91;;;10.11;100.00
6532;BME280;3299;42.004;24.868;2023-05-12T03:58:06;98669.34;;;10.21;100.00
6532;BME280;3299;42.004;24.868;2023-05-12T04:00:31;98713.19;;;10.49;100.00
6532;BME280;3299;42.004;24.868;2023-05-12T04:02:57;98686.22;;;10.26;100.00
6532;BME280;3299;42.004;24.868;2023-05-12T04:05:22;98708.75;;;10.24;100.00
6532;BME280;3299;42.004;24.868;2023-05-12T04:07:48;98625.75;;;9.61;100.00
6532;BME280;3299;42.004;24.868;2023-05-12T04:10:13;98641.69;;;9.81;100.00
6532;BME280;3299;42.004;24.868;2023-05-12T04:12:39;98708.25;;;10.32;100.00
6532;BME280;3299;42.004;24.868;2023-05-12T04:15:05;98647.47;;;9.98;100.00
6532;BME280;3299;42.004;24.868;2023-05-12T04:17:30;98672.44;;;10.26;100.00
6532;BME280;3299;42.004;24.868;2023-05-12T04:19:56;98622.91;;;10.05;100.00
6532;BME280;3299;42.004;24.868;2023-05-12T04:22:21;98625.31;;;10.35;100.00
6532;BME280;3299;42.004;24.868;2023-05-12T04:24:46;98714.03;;;11.15;100.00
6532;BME280;3299;42.004;24.868;2023-05-12T04:27:12;98637.66;;;10.83;100.00
6532;BME280;3299;42.004;24.868;2023-05-12T04:29:37;98673.53;;;11.14;100.00
6532;BME280;3299;42.004;24.868;2023-05-12T04:32:03;98629.06;;;10.95;100.00
6532;BME280;3299;42.004;24.868;2023-05-12T04:34:28;98711.28;;;11.43;100.00
6532;BME280;3299;42.004;24.868;2023-05-12T04:36:54;98702.97;;;11.38;100.00
6532;BME280;3299;42.004;24.868;2023-05-12T04:39:19;98721.34;;;11.60;100.00
6532;BME280;3299;42.004;24.868;2023-05-12T04:41:44;98659.66;;;11.27;100.00
6532;BME280;3299;42.004;24.868;2023-05-12T04:44:10;98721.44;;;11.71;100.00
6532;BME280;3299;42.004;24.868;2023-05-12T04:46:35;98711.09;;;11.71;100.00
6532;BME280;3299;42.004;24.868;2023-05-12T04:49:01;98709.09;;;11.74;100.00
6532;BME280;3299;42.004;24.868;2023-05-12T04:51:26;98616.84;;;11.09;100.00
6532;BME280;3299;42.004;24.868;2023-05-12T04:53:51;98679.97;;;11.46;100.00
6532;BME280;3299;42.004;24.868;2023-05-12T04:56:17;98615.09;;;11.10;100.00
6532;BME280;3299;42.004;24.868;2023-05-12T04:58:42;98706.13;;;11.68;100.00
6532;BME280;3299;42.004;24.868;2023-05-12T05:01:07;98700.94;;;11.68;100.00
6532;BME280;3299;42.004;24.868;2023-05-12T05:03:33;98614.16;;;11.11;100.00
6532;BME280;3299;42.004;24.868;2023-05-12T05:05:58;98680.38;;;11.40;100.00
6532;BME280;3299;42.004;24.868;2023-05-12T05:08:24;98632.94;;;11.27;100.00
6532;BME280;3299;42.004;24.868;2023-05-12T05:10:49;98677.47;;;11.44;100.00
6532;BME280;3299;42.004;24.868;2023-05-12T05:13:15;98645.97;;;11.13;100.00
6532;BME280;3299;42.004;24.868;2023-05-12T05:15:48;98647.53;;;11.15;100.00
6532;BME280;3299;42.004;24.868;2023-05-12T05:18:14;98659.97;;;11.23;100.00
6532;BME280;3299;42.004;24.868;2023-05-12T05:20:39;98636.22;;;11.04;100.00
6532;BME280;3299;42.004;24.868;2023-05-12T05:23:04;98724.97;;;11.70;100.00
6532;BME280;3299;42.004;24.868;2023-05-12T05:25:31;98630.84;;;11.07;100.00
6532;BME280;3299;42.004;24.868;2023-05-12T05:27:57;98718.09;;;11.56;100.00
6532;BME280;3299;42.004;24.868;2023-05-12T05:30:22;98734.09;;;11.63;100.00
6532;BME280;3299;42.004;24.868;2023-05-12T05:32:48;98716.66;;;11.52;100.00
6532;BME280;3299;42.004;24.868;2023-05-12T05:35:13;98715.31;;;11.47;100.00
6532;BME280;3299;42.004;24.868;2023-05-12T05:37:38;98724.31;;;11.54;100.00
6532;BME280;3299;42.004;24.868;2023-05-12T05:40:04;98729.25;;;11.58;100.00
6532;BME280;3299;42.004;24.868;2023-05-12T05:42:30;98646.59;;;11.04;100.00
6532;BME280;3299;42.004;24.868;2023-05-12T05:44:55;98704.63;;;11.39;100.00
6532;BME280;3299;42.004;24.868;2023-05-12T05:47:21;98720.44;;;11.61;100.00
6532;BME280;3299;42.004;24.868;2023-05-12T05:49:46;98675.00;;;11.43;100.00
6532;BME280;3299;42.004;24.868;2023-05-12T05:52:12;98697.13;;;11.61;100.00
6532;BME280;3299;42.004;24.868;2023-05-12T05:54:37;98736.81;;;11.86;100.00
6532;BME280;3299;42.004;24.868;2023-05-12T05:57:03;98711.41;;;11.79;100.00
6532;BME280;3299;42.004;24.868;2023-05-12T05:59:28;98726.97;;;11.79;100.00
6532;BME280;3299;42.004;24.868;2023-05-12T06:01:53;98737.19;;;11.93;100.00
6532;BME280;3299;42.004;24.868;2023-05-12T06:04:19;98707.69;;;11.70;100.00
6532;BME280;3299;42.004;24.868;2023-05-12T06:06:44;98669.81;;;11.55;100.00
6532;BME280;3299;42.004;24.868;2023-05-12T06:09:10;98668.38;;;11.64;100.00
6532;BME280;3299;42.004;24.868;2023-05-12T06:11:37;98689.81;;;11.91;100.00
6532;BME280;3299;42.004;24.868;2023-05-12T06:14:03;98723.28;;;12.19;100.00
6532;BME280;3299;42.004;24.868;2023-05-12T06:16:29;98658.91;;;11.88;100.00
6532;BME280;3299;42.004;24.868;2023-05-12T06:18:54;98660.25;;;11.93;100.00
6532;BME280;3299;42.004;24.868;2023-05-12T06:21:19;98736.78;;;12.47;100.00
6532;BME280;3299;42.004;24.868;2023-05-12T06:23:45;98718.25;;;12.28;100.00
6532;BME280;3299;42.004;24.868;2023-05-12T06:26:10;98758.91;;;12.40;100.00
6532;BME280;3299;42.004;24.868;2023-05-12T06:28:36;98654.88;;;11.84;100.00
6532;BME280;3299;42.004;24.868;2023-05-12T06:31:01;98687.19;;;12.03;100.00
6532;BME280;3299;42.004;24.868;2023-05-12T06:33:27;98678.44;;;12.17;100.00
6532;BME280;3299;42.004;24.868;2023-05-12T06:35:52;98748.00;;;12.71;100.00
6532;BME280;3299;42.004;24.868;2023-05-12T06:38:17;98713.88;;;12.65;100.00
6532;BME280;3299;42.004;24.868;2023-05-12T06:40:43;98724.88;;;12.68;100.00
6532;BME280;3299;42.004;24.868;2023-05-12T06:43:08;98736.41;;;12.88;98.69
6532;BME280;3299;42.004;24.868;2023-05-12T06:45:33;98666.88;;;12.57;97.79
6532;BME280;3299;42.004;24.868;2023-05-12T06:47:59;98738.63;;;13.05;97.78
6532;BME280;3299;42.004;24.868;2023-05-12T06:50:25;98661.63;;;12.69;95.33
6532;BME280;3299;42.004;24.868;2023-05-12T06:52:51;98681.50;;;13.16;94.57
6532;BME280;3299;42.004;24.868;2023-05-12T06:55:16;98672.34;;;13.34;93.13
6532;BME280;3299;42.004;24.868;2023-05-12T06:57:44;98674.25;;;13.43;90.36
6532;BME280;3299;42.004;24.868;2023-05-12T07:00:10;98711.28;;;13.68;90.10
6532;BME280;3299;42.004;24.868;2023-05-12T07:02:35;98760.34;;;13.95;88.98
6532;BME280;3299;42.004;24.868;2023-05-12T07:05:01;98701.91;;;13.55;87.99
6532;BME280;3299;42.004;24.868;2023-05-12T07:07:26;98745.31;;;13.76;87.93
6532;BME280;3299;42.004;24.868;2023-05-12T07:09:51;98741.28;;;13.61;87.64
6532;BME280;3299;42.004;24.868;2023-05-12T07:12:17;98757.19;;;13.46;90.55
6532;BME280;3299;42.004;24.868;2023-05-12T07:14:42;98716.38;;;13.24;91.33
6532;BME280;3299;42.004;24.868;2023-05-12T07:17:07;98664.16;;;12.93;92.13
6532;BME280;3299;42.004;24.868;2023-05-12T07:19:33;98729.28;;;13.37;90.40
6532;BME280;3299;42.004;24.868;2023-05-12T07:22:00;98667.34;;;13.20;87.91
6532;BME280;3299;42.004;24.868;2023-05-12T07:24:25;98703.31;;;13.48;87.69
6532;BME280;3299;42.004;24.868;2023-05-12T07:26:52;98726.03;;;13.68;87.58
6532;BME280;3299;42.004;24.868;2023-05-12T07:29:17;98738.38;;;13.99;83.70
6532;BME280;3299;42.004;24.868;2023-05-12T07:31:43;98746.16;;;14.10;83.51
6532;BME280;3299;42.004;24.868;2023-05-12T07:34:08;98734.22;;;13.96;83.76
6532;BME280;3299;42.004;24.868;2023-05-12T07:36:34;98718.03;;;13.93;83.73
6532;BME280;3299;42.004;24.868;2023-05-12T07:38:59;98677.22;;;13.60;82.74
6532;BME280;3299;42.004;24.868;2023-05-12T07:41:25;98759.16;;;14.10;81.56
6532;BME280;3299;42.004;24.868;2023-05-12T07:43:50;98696.00;;;13.97;82.70
6532;BME280;3299;42.004;24.868;2023-05-12T07:46:16;98665.16;;;14.14;83.05
6532;BME280;3299;42.004;24.868;2023-05-12T07:48:42;98757.19;;;14.89;81.27
6532;BME280;3299;42.004;24.868;2023-05-12T07:51:07;98763.28;;;15.10;79.93
6532;BME280;3299;42.004;24.868;2023-05-12T07:53:33;98673.41;;;14.73;78.63
6532;BME280;3299;42.004;24.868;2023-05-12T07:55:58;98761.13;;;15.15;76.45
6532;BME280;3299;42.004;24.868;2023-05-12T07:58:24;98681.38;;;14.71;74.47
6532;BME280;3299;42.004;24.868;2023-05-12T08:00:50;98726.06;;;14.76;76.25
6532;BME280;3299;42.004;24.868;2023-05-12T08:03:15;98742.00;;;14.51;75.14
6532;BME280;3299;42.004;24.868;2023-05-12T08:05:41;98671.44;;;14.01;76.74
6532;BME280;3299;42.004;24.868;2023-05-12T08:08:07;98720.84;;;14.12;75.83
6532;BME280;3299;42.004;24.868;2023-05-12T08:10:40;98659.59;;;13.97;75.56
6532;BME280;3299;42.004;24.868;2023-05-12T08:13:05;98712.91;;;14.35;74.72
6532;BME280;3299;42.004;24.868;2023-05-12T08:15:30;98712.53;;;14.51;72.59
6532;BME280;3299;42.004;24.868;2023-05-12T08:17:56;98673.44;;;14.08;70.71
6532;BME280;3299;42.004;24.868;2023-05-12T08:20:21;98705.47;;;14.31;68.55
6532;BME280;3299;42.004;24.868;2023-05-12T08:22:47;98692.47;;;14.20;67.52
6532;BME280;3299;42.004;24.868;2023-05-12T08:25:12;98757.34;;;14.65;64.71
6532;BME280;3299;42.004;24.868;2023-05-12T08:27:37;98705.25;;;14.12;66.39
6532;BME280;3299;42.004;24.868;2023-05-12T08:30:03;98708.31;;;14.17;66.76
6532;BME280;3299;42.004;24.868;2023-05-12T08:32:28;98752.69;;;14.48;67.52
6532;BME280;3299;42.004;24.868;2023-05-12T08:34:54;98762.56;;;14.65;68.17
6532;BME280;3299;42.004;24.868;2023-05-12T08:37:19;98750.19;;;14.58;69.02
6532;BME280;3299;42.004;24.868;2023-05-12T08:39:45;98718.00;;;14.48;68.15
6532;BME280;3299;42.004;24.868;2023-05-12T08:42:42;98760.78;;;14.77;68.62
6532;BME280;3299;42.004;24.868;2023-05-12T08:45:09;98720.09;;;14.65;68.49
6532;BME280;3299;42.004;24.868;2023-05-12T08:47:36;98719.47;;;14.72;65.50
6532;BME280;3299;42.004;24.868;2023-05-12T08:50:03;98682.25;;;14.39;65.17
6532;BME280;3299;42.004;24.868;2023-05-12T08:52:32;98771.81;;;15.12;64.22
6532;BME280;3299;42.004;24.868;2023-05-12T08:54:58;98759.75;;;15.00;64.50
6532;BME280;3299;42.004;24.868;2023-05-12T08:57:24;98695.97;;;14.63;66.06
6532;BME280;3299;42.004;24.868;2023-05-12T08:59:54;98753.38;;;15.04;65.95
6532;BME280;3299;42.004;24.868;2023-05-12T09:02:22;98735.63;;;14.98;68.27
6532;BME280;3299;42.004;24.868;2023-05-12T09:04:51;98757.88;;;15.22;67.68
6532;BME280;3299;42.004;24.868;2023-05-12T09:07:20;98711.41;;;15.07;66.16
6532;BME280;3299;42.004;24.868;2023-05-12T09:09:48;98668.41;;;14.81;66.63
6532;BME280;3299;42.004;24.868;2023-05-12T09:12:17;98714.53;;;15.21;66.19
6532;BME280;3299;42.004;24.868;2023-05-12T09:14:53;98681.09;;;15.06;66.56
6532;BME280;3299;42.004;24.868;2023-05-12T09:17:22;98731.41;;;15.58;66.19
6532;BME280;3299;42.004;24.868;2023-05-12T09:19:47;98729.72;;;15.78;63.39
6532;BME280;3299;42.004;24.868;2023-05-12T09:22:12;98717.44;;;15.89;61.86
6532;BME280;3299;42.004;24.868;2023-05-12T09:24:39;98764.75;;;16.26;61.29
6532;BME280;3299;42.004;24.868;2023-05-12T09:27:05;98765.72;;;16.04;60.96
6532;BME280;3299;42.004;24.868;2023-05-12T09:29:31;98687.66;;;15.62;60.30
6532;BME280;3299;42.004;24.868;2023-05-12T09:31:59;98760.16;;;15.88;61.96
6532;BME280;3299;42.004;24.868;2023-05-12T09:34:30;98674.16;;;15.16;62.48
6532;BME280;3299;42.004;24.868;2023-05-12T09:37:02;98672.19;;;15.29;62.20
6532;BME280;3299;42.004;24.868;2023-05-12T09:39:29;98721.25;;;15.85;61.20
6532;BME280;3299;42.004;24.868;2023-05-12T09:41:55;98673.25;;;15.67;60.50
6532;BME280;3299;42.004;24.868;2023-05-12T09:44:22;98749.59;;;16.20;60.41
6532;BME280;3299;42.004;24.868;2023-05-12T09:46:47;98748.59;;;16.11;60.24
6532;BME280;3299;42.004;24.868;2023-05-12T09:49:23;98693.69;;;15.92;59.95
6532;BME280;3299;42.004;24.868;2023-05-12T09:51:55;98668.44;;;15.93;61.20
6532;BME280;3299;42.004;24.868;2023-05-12T09:54:31;98664.22;;;15.71;59.47
6532;BME280;3299;42.004;24.868;2023-05-12T09:57:00;98696.84;;;15.66;61.15
6532;BME280;3299;42.004;24.868;2023-05-12T09:59:31;98752.53;;;16.06;62.54
6532;BME280;3299;42.004;24.868;2023-05-12T10:02:01;98700.38;;;15.85;58.91
6532;BME280;3299;42.004;24.868;2023-05-12T10:04:29;98662.78;;;15.88;59.84
6532;BME280;3299;42.004;24.868;2023-05-12T10:06:56;98730.31;;;16.11;57.47
6532;BME280;3299;42.004;24.868;2023-05-12T10:09:30;98736.63;;;16.39;56.75
6532;BME280;3299;42.004;24.868;2023-05-12T10:11:58;98742.06;;;16.36;56.25
6532;BME280;3299;42.004;24.868;2023-05-12T10:14:23;98659.97;;;16.10;57.01
6532;BME280;3299;42.004;24.868;2023-05-12T10:16:50;98748.78;;;16.59;57.40
6532;BME280;3299;42.004;24.868;2023-05-12T10:19:16;98696.78;;;16.46;56.88
6532;BME280;3299;42.004;24.868;2023-05-12T10:21:43;98686.50;;;16.64;56.15
6532;BME280;3299;42.004;24.868;2023-05-12T10:24:14;98714.69;;;16.89;56.25
6532;BME280;3299;42.004;24.868;2023-05-12T10:26:43;98681.69;;;16.88;54.90
6532;BME280;3299;42.004;24.868;2023-05-12T10:29:09;98747.63;;;17.48;55.57
6532;BME280;3299;42.004;24.868;2023-05-12T10:31:36;98659.66;;;17.00;54.94
6532;BME280;3299;42.004;24.868;2023-05-12T10:34:03;98684.16;;;16.80;54.53
6532;BME280;3299;42.004;24.868;2023-05-12T10:36:28;98692.69;;;17.01;54.49
6532;BME280;3299;42.004;24.868;2023-05-12T10:38:55;98688.31;;;16.73;53.38
6532;BME280;3299;42.004;24.868;2023-05-12T10:41:31;98737.41;;;17.17;54.49
6532;BME280;3299;42.004;24.868;2023-05-12T10:43:56;98683.06;;;17.11;52.93
6532;BME280;3299;42.004;24.868;2023-05-12T10:46:22;98649.44;;;17.35;52.97
6532;BME280;3299;42.004;24.868;2023-05-12T10:49:02;98743.34;;;18.03;52.65
6532;BME280;3299;42.004;24.868;2023-05-12T10:54:11;98716.94;;;18.23;53.08
6532;BME280;3299;42.004;24.868;2023-05-12T10:59:11;98732.72;;;18.68;51.71
6532;BME280;3299;42.004;24.868;2023-05-12T11:04:19;98661.34;;;18.74;48.82
6532;BME280;3299;42.004;24.868;2023-05-12T11:06:56;98704.53;;;18.70;49.02
6532;BME280;3299;42.004;24.868;2023-05-12T11:09:23;98704.41;;;18.54;50.65
6532;BME280;3299;42.004;24.868;2023-05-12T11:11:49;98623.97;;;17.83;51.61
6532;BME280;3299;42.004;24.868;2023-05-12T11:14:15;98721.31;;;18.59;52.41
6532;BME280;3299;42.004;24.868;2023-05-12T11:16:42;98668.47;;;18.10;49.98
6532;BME280;3299;42.004;24.868;2023-05-12T11:19:08;98630.88;;;17.38;51.90
6532;BME280;3299;42.004;24.868;2023-05-12T11:21:33;98709.00;;;18.06;51.88
6532;BME280;3299;42.004;24.868;2023-05-12T11:24:00;98636.94;;;17.75;50.24
6532;BME280;3299;42.004;24.868;2023-05-12T11:26:27;98693.72;;;18.38;50.28
6532;BME280;3299;42.004;24.868;2023-05-12T11:28:53;98691.16;;;18.55;47.77
6532;BME280;3299;42.004;24.868;2023-05-12T11:31:20;98680.81;;;18.71;48.90
6532;BME280;3299;42.004;24.868;2023-05-12T11:33:46;98735.59;;;18.92;49.12
6532;BME280;3299;42.004;24.868;2023-05-12T11:36:13;98705.38;;;18.70;49.53
6532;BME280;3299;42.004;24.868;2023-05-12T11:38:39;98599.72;;;17.81;49.59
6532;BME280;3299;42.004;24.868;2023-05-12T11:41:04;98659.38;;;18.14;49.98
6532;BME280;3299;42.004;24.868;2023-05-12T11:43:30;98709.44;;;18.65;50.45
6532;BME280;3299;42.004;24.868;2023-05-12T11:45:55;98647.63;;;18.45;48.26
6532;BME280;3299;42.004;24.868;2023-05-12T11:48:20;98631.53;;;18.57;49.03
6532;BME280;3299;42.004;24.868;2023-05-12T11:50:48;98643.00;;;18.74;49.19
6532;BME280;3299;42.004;24.868;2023-05-12T11:53:17;98662.69;;;18.78;49.87
6532;BME280;3299;42.004;24.868;2023-05-12T11:55:53;98699.91;;;19.16;48.30
6532;BME280;3299;42.004;24.868;2023-05-12T11:58:24;98621.66;;;18.86;48.48
6532;BME280;3299;42.004;24.868;2023-05-12T12:00:51;98687.06;;;19.48;47.48
6532;BME280;3299;42.004;24.868;2023-05-12T12:03:17;98659.44;;;19.19;47.84
6532;BME280;3299;42.004;24.868;2023-05-12T12:05:44;98670.06;;;19.17;46.32
6532;BME280;3299;42.004;24.868;2023-05-12T12:08:20;98705.63;;;19.47;46.38
6532;BME280;3299;42.004;24.868;2023-05-12T12:10:46;98695.13;;;19.47;44.94
6532;BME280;3299;42.004;24.868;2023-05-12T12:13:18;98675.50;;;19.59;44.61
6532;BME280;3299;42.004;24.868;2023-05-12T12:15:43;98636.94;;;19.34;45.29
6532;BME280;3299;42.004;24.868;2023-05-12T12:18:09;98675.97;;;19.54;45.85
6532;BME280;3299;42.004;24.868;2023-05-12T12:20:34;98709.31;;;19.87;45.79
6532;BME280;3299;42.004;24.868;2023-05-12T12:23:00;98680.13;;;19.65;46.20
6532;BME280;3299;42.004;24.868;2023-05-12T12:25:25;98652.00;;;19.32;45.99
6532;BME280;3299;42.004;24.868;2023-05-12T12:27:50;98628.00;;;19.44;45.58
6532;BME280;3299;42.004;24.868;2023-05-12T12:30:17;98641.50;;;19.49;46.02
6532;BME280;3299;42.004;24.868;2023-05-12T12:32:43;98655.78;;;19.55;47.23
6532;BME280;3299;42.004;24.868;2023-05-12T12:35:09;98645.34;;;19.20;47.78
6532;BME280;3299;42.004;24.868;2023-05-12T12:37:35;98668.94;;;19.63;48.04
6532;BME280;3299;42.004;24.868;2023-05-12T12:40:01;98645.94;;;19.57;47.42
6532;BME280;3299;42.004;24.868;2023-05-12T12:42:35;98690.84;;;20.05;47.55
6532;BME280;3299;42.004;24.868;2023-05-12T12:45:04;98656.91;;;20.11;45.42
6532;BME280;3299;42.004;24.868;2023-05-12T12:47:30;98654.19;;;20.29;44.82
6532;BME280;3299;42.004;24.868;2023-05-12T12:49:56;98700.22;;;20.33;44.90
6532;BME280;3299;42.004;24.868;2023-05-12T12:52:21;98650.00;;;20.10;44.65
6532;BME280;3299;42.004;24.868;2023-05-12T12:54:47;98649.81;;;20.04;44.85
6532;BME280;3299;42.004;24.868;2023-05-12T12:57:12;98665.81;;;20.18;45.54
6532;BME280;3299;42.004;24.868;2023-05-12T12:59:38;98673.94;;;20.49;44.02
6532;BME280;3299;42.004;24.868;2023-05-12T13:02:03;98600.19;;;20.01;42.88
6532;BME280;3299;42.004;24.868;2023-05-12T13:04:29;98615.28;;;20.32;43.94
6532;BME280;3299;42.004;24.868;2023-05-12T13:06:54;98650.28;;;20.41;42.34
6532;BME280;3299;42.004;24.868;2023-05-12T13:09:20;98637.50;;;20.78;43.63
6532;BME280;3299;42.004;24.868;2023-05-12T13:11:46;98644.50;;;21.03;42.55